createdAt,value
2023-02-27T00:00:44.688Z,33.57
2023-02-27T00:03:11.284Z,33.37
2023-02-27T00:05:37.868Z,33.43
2023-02-27T00:08:04.441Z,33.20
2023-02-27T00:10:31.045Z,33.46
2023-02-27T00:12:57.613Z,33.30
2023-02-27T00:15:24.624Z,33.31
2023-02-27T00:17:51.233Z,33.47
2023-02-27T00:20:19.497Z,33.52
2023-02-27T00:22:46.937Z,33.34
2023-02-27T00:25:14.503Z,33.59
2023-02-27T00:27:42.109Z,33.47
2023-02-27T00:30:15.551Z,33.74
2023-02-27T00:32:43.292Z,33.89
2023-02-27T00:35:12.095Z,33.54
2023-02-27T00:37:39.293Z,33.31
2023-02-27T00:40:07.048Z,33.38
2023-02-27T00:42:34.460Z,33.59
2023-02-27T00:45:01.255Z,33.41
2023-02-27T00:47:27.848Z,33.08
2023-02-27T00:49:54.486Z,32.98
2023-02-27T00:52:21.102Z,33.17
2023-02-27T00:54:47.696Z,33.00
2023-02-27T00:57:14.389Z,32.75
2023-02-27T00:59:41.234Z,32.97
2023-02-27T01:02:08.097Z,32.60
2023-02-27T01:04:34.826Z,32.59
2023-02-27T01:07:01.667Z,32.47
2023-02-27T01:09:28.267Z,31.72
2023-02-27T01:11:54.919Z,31.79
2023-02-27T01:14:21.539Z,32.20
2023-02-27T01:16:48.126Z,32.00
2023-02-27T01:19:14.719Z,31.50
2023-02-27T01:21:42.184Z,31.73
2023-02-27T01:24:10.014Z,31.53
2023-02-27T01:26:36.796Z,32.18
2023-02-27T01:29:06.339Z,32.61
2023-02-27T01:31:33.601Z,32.03
2023-02-27T01:34:00.332Z,32.06
2023-02-27T01:36:26.953Z,31.83
2023-02-27T01:38:53.627Z,31.76
2023-02-27T01:41:20.260Z,31.79
2023-02-27T01:44:15.982Z,31.90
2023-02-27T01:46:42.755Z,31.62
2023-02-27T01:49:21.737Z,31.83
2023-02-27T01:51:53.891Z,31.66
2023-02-27T01:54:25.808Z,32.00
2023-02-27T01:56:52.754Z,31.57
2023-02-27T01:59:21.507Z,31.77
2023-02-27T02:01:50.043Z,31.94
2023-02-27T02:04:27.835Z,32.19
2023-02-27T02:06:59.614Z,31.29
2023-02-27T02:09:27.842Z,32.14
2023-02-27T02:11:56.477Z,32.22
2023-02-27T02:14:23.237Z,31.41
2023-02-27T02:17:08.690Z,32.64
2023-02-27T02:19:53.430Z,32.02
2023-02-27T02:22:46.202Z,31.60
2023-02-27T02:25:33.823Z,31.15
2023-02-27T02:28:19.171Z,31.78
2023-02-27T02:31:03.950Z,32.07
2023-02-27T02:34:08.005Z,31.04
2023-02-27T02:36:59.313Z,31.14
2023-02-27T02:39:41.013Z,31.14
2023-02-27T02:42:26.091Z,31.90
2023-02-27T02:45:11.176Z,31.83
2023-02-27T02:47:56.669Z,31.27
2023-02-27T02:50:50.319Z,31.51
2023-02-27T02:53:41.760Z,31.77
2023-02-27T02:56:24.760Z,31.85
2023-02-27T02:59:14.241Z,31.86
2023-02-27T03:01:56.181Z,31.62
2023-02-27T03:04:52.196Z,31.55
2023-02-27T03:07:27.564Z,30.71
2023-02-27T03:10:00.855Z,31.16
2023-02-27T03:12:30.508Z,31.40
2023-02-27T03:15:01.567Z,31.50
2023-02-27T03:17:40.721Z,31.83
2023-02-27T03:20:12.341Z,31.78
2023-02-27T03:22:44.371Z,31.84
2023-02-27T03:25:13.461Z,31.47
2023-02-27T03:27:53.598Z,31.12
2023-02-27T03:30:33.772Z,31.07
2023-02-27T03:33:07.620Z,31.90
2023-02-27T03:35:51.941Z,31.69
2023-02-27T03:38:24.894Z,31.54
2023-02-27T03:41:14.617Z,31.75
2023-02-27T03:44:01.356Z,31.04
2023-02-27T03:46:28.654Z,30.96
2023-02-27T03:48:55.425Z,31.09
2023-02-27T03:51:24.413Z,31.58
2023-02-27T03:54:13.072Z,30.76
2023-02-27T03:56:58.914Z,31.39
2023-02-27T03:59:30.519Z,31.80
2023-02-27T04:01:58.617Z,31.59
2023-02-27T04:04:27.587Z,31.39
2023-02-27T04:07:17.866Z,31.62
2023-02-27T04:10:15.049Z,31.11
2023-02-27T04:12:47.603Z,30.91
2023-02-27T04:15:39.249Z,30.91
2023-02-27T04:18:26.502Z,31.63
2023-02-27T04:20:59.510Z,31.69
2023-02-27T04:24:05.359Z,31.71
2023-02-27T04:26:46.669Z,32.62
2023-02-27T04:29:23.315Z,32.72
2023-02-27T04:31:58.770Z,32.59
2023-02-27T04:34:41.442Z,32.47
2023-02-27T04:37:33.791Z,32.73
2023-02-27T04:40:06.372Z,32.88
2023-02-27T04:42:38.039Z,32.90
2023-02-27T04:45:09.387Z,33.06
2023-02-27T04:47:44.183Z,32.94
2023-02-27T04:50:19.674Z,33.06
2023-02-27T04:53:13.412Z,32.58
2023-02-27T04:55:47.437Z,32.43
2023-02-27T04:58:25.378Z,32.68
2023-02-27T05:00:59.050Z,32.45
2023-02-27T05:03:30.603Z,32.57
2023-02-27T05:06:00.131Z,32.82
2023-02-27T05:08:34.590Z,33.01
2023-02-27T05:11:05.892Z,32.44
2023-02-27T05:13:39.598Z,32.97
2023-02-27T05:16:33.086Z,32.73
2023-02-27T05:19:01.652Z,32.61
2023-02-27T05:21:36.365Z,32.85
2023-02-27T05:24:20.424Z,32.70
2023-02-27T05:27:09.299Z,32.59
2023-02-27T05:29:49.493Z,32.83
2023-02-27T05:32:36.658Z,33.10
2023-02-27T05:35:18.409Z,32.78
2023-02-27T05:37:51.501Z,32.57
2023-02-27T05:40:26.897Z,32.67
2023-02-27T05:43:01.160Z,32.66
2023-02-27T05:45:31.465Z,33.09
2023-02-27T05:48:10.107Z,33.09
2023-02-27T05:50:38.900Z,32.90
2023-02-27T05:53:11.390Z,32.85
2023-02-27T05:55:44.290Z,32.92
2023-02-27T05:58:18.590Z,32.70
2023-02-27T06:00:51.129Z,32.73
2023-02-27T06:03:18.098Z,32.35
2023-02-27T06:05:45.836Z,32.60
2023-02-27T06:08:12.448Z,32.81
2023-02-27T06:10:39.183Z,32.60
2023-02-27T06:13:05.777Z,32.87
2023-02-27T06:15:32.417Z,32.51
2023-02-27T06:17:59.010Z,32.70
2023-02-27T06:20:25.604Z,32.56
2023-02-27T06:22:52.215Z,32.58
2023-02-27T06:25:18.792Z,32.71
2023-02-27T06:27:45.484Z,32.52
2023-02-27T06:30:12.532Z,32.60
2023-02-27T06:32:39.145Z,32.65
2023-02-27T06:35:06.733Z,32.94
2023-02-27T06:37:33.512Z,32.68
2023-02-27T06:40:00.262Z,32.98
2023-02-27T06:42:27.033Z,33.04
2023-02-27T06:44:53.768Z,32.87
2023-02-27T06:47:20.696Z,33.18
2023-02-27T06:49:47.388Z,32.76
2023-02-27T06:52:13.973Z,32.76
2023-02-27T06:54:40.674Z,33.29
2023-02-27T06:57:07.297Z,33.25
2023-02-27T06:59:33.932Z,32.80
2023-02-27T07:02:00.664Z,33.20
2023-02-27T07:04:27.316Z,33.49
2023-02-27T07:07:36.212Z,32.94
2023-02-27T07:09:40.569Z,33.36
2023-02-27T07:12:08.027Z,33.18
2023-02-27T07:14:34.997Z,33.29
2023-02-27T07:17:04.487Z,33.33
2023-02-27T07:19:33.720Z,33.29
2023-02-27T07:22:00.321Z,33.49
2023-02-27T07:24:26.964Z,33.15
2023-02-27T07:26:54.019Z,33.17
2023-02-27T07:29:20.723Z,33.17
2023-02-27T07:31:47.366Z,33.01
2023-02-27T07:34:15.642Z,33.32
2023-02-27T07:36:43.452Z,33.43
2023-02-27T07:39:12.348Z,33.08
2023-02-27T07:41:39.266Z,32.85
2023-02-27T07:44:08.591Z,32.99
2023-02-27T07:46:36.094Z,33.16
2023-02-27T07:49:03.303Z,33.02
2023-02-27T07:51:29.989Z,32.89
2023-02-27T07:53:58.447Z,32.73
2023-02-27T07:56:26.073Z,32.88
2023-02-27T07:58:52.808Z,32.58
2023-02-27T08:01:19.447Z,32.74
2023-02-27T08:03:46.015Z,32.37
2023-02-27T08:06:12.605Z,32.56
2023-02-27T08:08:39.271Z,32.91
2023-02-27T08:11:05.936Z,32.70
2023-02-27T08:13:59.041Z,32.83
2023-02-27T08:16:19.267Z,32.85
2023-02-27T08:18:45.887Z,32.67
2023-02-27T08:21:12.473Z,32.67
2023-02-27T08:23:39.357Z,33.04
2023-02-27T08:26:06.567Z,32.65
2023-02-27T08:28:33.339Z,33.03
2023-02-27T08:30:59.944Z,32.67
2023-02-27T08:33:26.720Z,32.77
2023-02-27T08:35:54.555Z,32.18
2023-02-27T08:38:21.661Z,32.49
2023-02-27T08:40:50.600Z,32.48
2023-02-27T08:43:17.189Z,32.15
2023-02-27T08:45:43.779Z,32.34
2023-02-27T08:48:14.086Z,31.87
2023-02-27T08:50:40.670Z,32.26
2023-02-27T08:53:07.788Z,32.40
2023-02-27T08:55:34.433Z,32.03
2023-02-27T08:58:01.163Z,32.11
2023-02-27T09:00:29.000Z,31.86
2023-02-27T09:02:56.153Z,31.80
2023-02-27T09:05:23.018Z,31.99
2023-02-27T09:07:49.606Z,31.65
2023-02-27T09:10:16.290Z,32.02
2023-02-27T09:12:43.063Z,31.36
2023-02-27T09:15:11.366Z,31.50
2023-02-27T09:17:38.161Z,31.44
2023-02-27T09:20:09.323Z,31.23
2023-02-27T09:22:36.012Z,31.27
2023-02-27T09:25:02.962Z,31.02
2023-02-27T09:27:29.637Z,30.95
2023-02-27T09:29:56.485Z,31.58
2023-02-27T09:32:24.154Z,31.18
2023-02-27T09:34:51.256Z,31.65
2023-02-27T09:37:19.260Z,31.79
2023-02-27T09:39:46.501Z,31.50
2023-02-27T09:42:21.197Z,32.04
2023-02-27T09:45:01.941Z,32.03
2023-02-27T09:47:43.213Z,32.22
2023-02-27T09:50:32.307Z,32.26
2023-02-27T09:53:00.401Z,31.58
2023-02-27T09:55:31.742Z,31.59
2023-02-27T09:58:26.973Z,32.36
2023-02-27T10:01:14.370Z,31.90
2023-02-27T10:03:47.038Z,31.62
2023-02-27T10:06:31.009Z,32.41
2023-02-27T10:09:20.336Z,32.31
2023-02-27T10:12:07.571Z,32.19
2023-02-27T10:15:14.148Z,31.63
2023-02-27T10:17:48.501Z,32.36
2023-02-27T10:20:32.895Z,32.13
2023-02-27T10:23:10.602Z,32.21
2023-02-27T10:25:45.311Z,31.93
2023-02-27T10:28:17.959Z,31.90
2023-02-27T10:30:49.136Z,31.94
2023-02-27T10:33:37.228Z,31.85
2023-02-27T10:36:12.465Z,31.82
2023-02-27T10:38:44.750Z,31.84
2023-02-27T10:41:14.870Z,31.56
2023-02-27T10:43:42.352Z,31.10
2023-02-27T10:46:29.961Z,31.52
2023-02-27T10:49:00.274Z,31.42
2023-02-27T10:51:28.374Z,31.30
2023-02-27T10:54:17.039Z,31.42
2023-02-27T10:56:48.453Z,31.66
2023-02-27T10:59:21.654Z,31.78
2023-02-27T11:02:01.215Z,31.38
2023-02-27T11:04:39.813Z,31.70
2023-02-27T11:07:12.135Z,30.96
2023-02-27T11:09:38.890Z,31.34
2023-02-27T11:12:26.532Z,31.30
2023-02-27T11:15:02.478Z,31.01
2023-02-27T11:17:31.717Z,30.72
2023-02-27T11:20:00.177Z,30.64
2023-02-27T11:22:29.945Z,30.92
2023-02-27T11:25:20.328Z,30.35
2023-02-27T11:27:47.670Z,30.85
2023-02-27T11:30:24.868Z,30.63
2023-02-27T11:32:53.370Z,29.94
2023-02-27T11:35:25.754Z,31.07
2023-02-27T11:37:55.091Z,30.73
2023-02-27T11:40:26.810Z,31.23
2023-02-27T11:42:57.226Z,31.01
2023-02-27T11:46:08.014Z,30.90
2023-02-27T11:48:39.730Z,31.09
2023-02-27T11:51:16.142Z,30.83
2023-02-27T11:54:29.978Z,31.12
2023-02-27T11:57:27.518Z,31.61
2023-02-27T12:00:06.713Z,31.44
2023-02-27T12:02:42.108Z,31.73
2023-02-27T12:05:19.803Z,31.77
2023-02-27T12:07:55.740Z,31.83
2023-02-27T12:10:29.854Z,31.82
2023-02-27T12:13:14.935Z,31.96
2023-02-27T12:15:50.285Z,31.97
2023-02-27T12:18:16.910Z,32.02
2023-02-27T12:20:50.532Z,32.22
2023-02-27T12:23:23.884Z,31.79
2023-02-27T12:25:56.891Z,31.77
2023-02-27T12:28:33.229Z,31.60
2023-02-27T12:31:21.636Z,31.98
2023-02-27T12:34:03.964Z,31.85
2023-02-27T12:36:31.428Z,31.64
2023-02-27T12:38:58.070Z,31.95
2023-02-27T12:41:43.989Z,32.12
2023-02-27T12:44:45.856Z,31.69
2023-02-27T12:47:34.551Z,31.52
2023-02-27T12:50:07.199Z,32.07
2023-02-27T12:52:39.936Z,31.83
2023-02-27T12:55:17.705Z,31.97
2023-02-27T12:58:02.397Z,32.14
2023-02-27T13:00:37.107Z,31.72
2023-02-27T13:03:18.573Z,31.85
2023-02-27T13:05:53.563Z,31.82
2023-02-27T13:08:53.959Z,31.97
2023-02-27T13:11:25.371Z,32.02
2023-02-27T13:13:55.094Z,32.09
2023-02-27T13:16:36.415Z,31.71
2023-02-27T13:19:29.208Z,32.07
2023-02-27T13:22:16.015Z,31.89
2023-02-27T13:24:50.084Z,31.87
2023-02-27T13:27:30.717Z,31.60
2023-02-27T13:30:11.585Z,32.12
2023-02-27T13:32:56.635Z,32.20
2023-02-27T13:35:23.215Z,32.46
2023-02-27T13:38:02.453Z,31.98
2023-02-27T13:40:34.582Z,32.24
2023-02-27T13:43:22.811Z,32.23
2023-02-27T13:45:53.462Z,32.59
2023-02-27T13:48:41.846Z,32.25
2023-02-27T13:51:11.090Z,32.23
2023-02-27T13:53:38.141Z,32.43
2023-02-27T13:56:22.694Z,31.96
2023-02-27T13:58:50.800Z,32.44
2023-02-27T14:01:28.648Z,32.46
2023-02-27T14:04:02.893Z,32.26
2023-02-27T14:06:30.043Z,32.23
2023-02-27T14:09:12.467Z,32.25
2023-02-27T14:11:51.353Z,32.14
2023-02-27T14:14:40.141Z,32.07
2023-02-27T14:17:09.801Z,32.61
2023-02-27T14:19:42.210Z,32.49
2023-02-27T14:22:11.476Z,32.50
2023-02-27T14:25:02.377Z,32.50
2023-02-27T14:27:43.732Z,32.11
2023-02-27T14:30:30.334Z,32.27
2023-02-27T14:33:14.891Z,32.43
2023-02-27T14:35:46.338Z,32.41
2023-02-27T14:38:19.323Z,32.33
2023-02-27T14:41:00.403Z,32.15
2023-02-27T14:43:40.686Z,32.41
2023-02-27T14:46:14.464Z,32.47
2023-02-27T14:48:41.393Z,32.28
2023-02-27T14:51:08.263Z,32.50
2023-02-27T14:53:34.886Z,32.37
2023-02-27T14:56:01.556Z,32.61
2023-02-27T14:58:28.616Z,32.67
2023-02-27T15:01:02.521Z,32.49
2023-02-27T15:03:40.189Z,32.96
2023-02-27T15:06:17.502Z,32.60
2023-02-27T15:08:49.210Z,32.53
2023-02-27T15:11:18.585Z,32.64
2023-02-27T15:13:46.446Z,32.86
2023-02-27T15:16:25.242Z,32.70
2023-02-27T15:18:55.715Z,32.83
2023-02-27T15:21:26.517Z,32.65
2023-02-27T15:24:06.669Z,33.02
2023-02-27T15:26:39.843Z,33.03
2023-02-27T15:29:08.685Z,32.34
2023-02-27T15:31:35.548Z,32.55
2023-02-27T15:34:03.924Z,32.69
2023-02-27T15:36:33.383Z,32.63
2023-02-27T15:39:11.957Z,32.87
2023-02-27T15:41:39.200Z,32.79
2023-02-27T15:44:06.083Z,33.01
2023-02-27T15:46:33.207Z,32.67
2023-02-27T15:49:00.342Z,33.27
2023-02-27T15:51:28.178Z,32.89
2023-02-27T15:53:58.608Z,32.85
2023-02-27T15:56:37.510Z,32.85
2023-02-27T15:59:05.192Z,32.85
2023-02-27T16:01:35.022Z,32.59
2023-02-27T16:04:14.835Z,32.75
2023-02-27T16:06:50.018Z,32.85
2023-02-27T16:09:30.988Z,32.59
2023-02-27T16:12:21.900Z,32.86
2023-02-27T16:14:52.779Z,32.71
2023-02-27T16:17:23.808Z,32.47
2023-02-27T16:19:50.513Z,32.82
2023-02-27T16:22:19.201Z,32.90
2023-02-27T16:24:46.149Z,32.77
2023-02-27T16:27:39.280Z,32.59
2023-02-27T16:30:11.140Z,32.95
2023-02-27T16:32:43.998Z,32.75
2023-02-27T16:35:19.964Z,32.59
2023-02-27T16:37:48.210Z,32.87
2023-02-27T16:40:17.365Z,32.81
2023-02-27T16:42:45.271Z,32.78
2023-02-27T16:45:17.977Z,32.91
2023-02-27T16:47:47.762Z,32.81
2023-02-27T16:50:29.056Z,32.74
2023-02-27T16:52:57.175Z,33.04
2023-02-27T16:55:24.380Z,32.67
2023-02-27T16:57:51.167Z,32.93
2023-02-27T17:00:19.207Z,32.79
2023-02-27T17:02:46.925Z,32.81
2023-02-27T17:05:15.210Z,33.13
2023-02-27T17:07:43.607Z,33.07
2023-02-27T17:10:22.247Z,33.14
2023-02-27T17:12:48.842Z,33.21
2023-02-27T17:15:15.608Z,32.97
2023-02-27T17:17:42.425Z,33.02
2023-02-27T17:20:10.452Z,32.90
2023-02-27T17:22:41.346Z,33.25
2023-02-27T17:25:09.412Z,32.77
2023-02-27T17:27:36.558Z,33.37
2023-02-27T17:30:04.053Z,33.11
2023-02-27T17:32:30.872Z,32.70
2023-02-27T17:34:59.156Z,33.20
2023-02-27T17:37:25.965Z,32.74
2023-02-27T17:39:52.647Z,32.77
2023-02-27T17:42:19.490Z,32.61
2023-02-27T17:44:46.562Z,32.66
2023-02-27T17:47:13.908Z,32.75
2023-02-27T17:49:40.700Z,32.46
2023-02-27T17:52:07.539Z,32.40
2023-02-27T17:54:35.176Z,32.76
2023-02-27T17:57:02.348Z,32.93
2023-02-27T17:59:28.993Z,32.90
2023-02-27T18:01:55.909Z,32.72
2023-02-27T18:04:22.522Z,33.14
2023-02-27T18:06:50.611Z,32.76
2023-02-27T18:09:17.812Z,32.34
2023-02-27T18:11:44.457Z,33.17
2023-02-27T18:14:11.045Z,32.70
2023-02-27T18:16:37.809Z,32.97
2023-02-27T18:19:06.114Z,32.74
2023-02-27T18:21:33.715Z,32.92
2023-02-27T18:24:00.425Z,32.84
2023-02-27T18:26:30.935Z,32.30
2023-02-27T18:29:00.359Z,33.19
2023-02-27T18:31:31.562Z,33.09
2023-02-27T18:33:59.095Z,32.73
2023-02-27T18:36:26.047Z,33.06
2023-02-27T18:38:52.847Z,32.85
2023-02-27T18:41:19.432Z,33.63
2023-02-27T18:43:46.043Z,32.90
2023-02-27T18:46:13.548Z,32.89
2023-02-27T18:48:41.184Z,32.84
2023-02-27T18:51:12.320Z,32.79
2023-02-27T18:53:39.734Z,32.95
2023-02-27T18:56:08.409Z,32.93
2023-02-27T18:58:36.134Z,32.78
2023-02-27T19:01:04.082Z,32.78
2023-02-27T19:03:32.003Z,33.04
2023-02-27T19:05:58.927Z,32.96
2023-02-27T19:08:29.111Z,32.53
2023-02-27T19:10:56.986Z,32.68
2023-02-27T19:13:24.038Z,32.90
2023-02-27T19:15:50.718Z,32.73
2023-02-27T19:18:17.404Z,32.82
2023-02-27T19:20:44.206Z,33.05
2023-02-27T19:23:10.857Z,32.89
2023-02-27T19:25:37.439Z,32.71
2023-02-27T19:28:05.229Z,32.70
2023-02-27T19:30:31.864Z,33.21
2023-02-27T19:32:58.482Z,33.24
2023-02-27T19:35:25.156Z,33.38
2023-02-27T19:37:56.975Z,33.20
2023-02-27T19:40:24.859Z,33.01
2023-02-27T19:42:51.631Z,32.97
2023-02-27T19:45:18.330Z,33.38
2023-02-27T19:47:44.915Z,33.14
2023-02-27T19:50:11.972Z,33.08
2023-02-27T19:52:38.554Z,32.81
2023-02-27T19:55:05.579Z,33.43
2023-02-27T19:57:34.716Z,33.46
2023-02-27T20:00:01.327Z,33.63
2023-02-27T20:02:28.165Z,33.28
2023-02-27T20:04:54.901Z,33.25
2023-02-27T20:07:21.962Z,32.64
2023-02-27T20:09:48.566Z,33.15
2023-02-27T20:12:15.560Z,33.32
2023-02-27T20:14:42.110Z,33.05
2023-02-27T20:17:08.660Z,33.07
2023-02-27T20:19:36.502Z,32.69
2023-02-27T20:22:03.833Z,33.08
2023-02-27T20:24:30.566Z,32.87
2023-02-27T20:26:59.202Z,32.83
2023-02-27T20:29:27.559Z,32.99
2023-02-27T20:31:55.733Z,33.21
2023-02-27T20:34:26.258Z,33.13
2023-02-27T20:36:55.806Z,32.96
2023-02-27T20:39:22.799Z,33.15
2023-02-27T20:41:49.408Z,33.10
2023-02-27T20:44:16.375Z,32.79
2023-02-27T20:46:43.858Z,32.92
2023-02-27T20:49:12.581Z,32.88
2023-02-27T20:51:39.649Z,32.79
2023-02-27T20:54:09.284Z,33.31
2023-02-27T20:56:39.886Z,32.75
2023-02-27T20:59:08.821Z,33.09
2023-02-27T21:01:38.172Z,32.61
2023-02-27T21:04:05.782Z,32.96
2023-02-27T21:06:32.863Z,33.00
2023-02-27T21:09:02.697Z,32.90
2023-02-27T21:11:32.238Z,33.20
2023-02-27T21:14:04.153Z,33.25
2023-02-27T21:16:30.841Z,33.09
2023-02-27T21:18:57.638Z,32.72
2023-02-27T21:21:27.782Z,32.95
2023-02-27T21:23:54.712Z,32.95
2023-02-27T21:26:35.219Z,32.90
2023-02-27T21:29:11.550Z,32.55
2023-02-27T21:31:39.662Z,32.77
2023-02-27T21:34:09.446Z,32.61
2023-02-27T21:36:42.248Z,32.69
2023-02-27T21:39:12.605Z,32.99
2023-02-27T21:41:39.548Z,33.10
2023-02-27T21:44:08.338Z,32.92
2023-02-27T21:46:35.264Z,32.98
2023-02-27T21:49:02.315Z,33.12
2023-02-27T21:51:40.118Z,32.90
2023-02-27T21:54:09.272Z,32.92
2023-02-27T21:56:35.978Z,32.57
2023-02-27T21:59:02.677Z,32.85
2023-02-27T22:01:30.637Z,32.78
2023-02-27T22:03:58.039Z,32.73
2023-02-27T22:06:26.814Z,32.72
2023-02-27T22:08:55.836Z,32.90
2023-02-27T22:11:23.607Z,33.16
2023-02-27T22:13:50.328Z,32.90
2023-02-27T22:16:17.120Z,32.91
2023-02-27T22:18:43.721Z,32.68
2023-02-27T22:21:13.274Z,32.86
2023-02-27T22:23:40.133Z,32.68
2023-02-27T22:26:13.170Z,32.93
2023-02-27T22:28:41.393Z,32.64
2023-02-27T22:31:11.520Z,32.75
2023-02-27T22:33:39.726Z,33.05
2023-02-27T22:36:14.381Z,33.16
2023-02-27T22:38:41.398Z,32.82
2023-02-27T22:41:14.063Z,32.86
2023-02-27T22:43:42.110Z,33.08
2023-02-27T22:46:10.045Z,32.56
2023-02-27T22:48:37.358Z,32.99
2023-02-27T22:51:06.018Z,33.26
2023-02-27T22:53:38.216Z,32.67
2023-02-27T22:56:16.104Z,32.69
2023-02-27T22:58:44.257Z,32.86
2023-02-27T23:01:24.958Z,32.87
2023-02-27T23:03:53.929Z,33.18
2023-02-27T23:06:23.730Z,32.75
2023-02-27T23:08:50.309Z,32.83
2023-02-27T23:11:18.548Z,32.87
2023-02-27T23:13:45.323Z,33.00
2023-02-27T23:16:13.594Z,32.88
2023-02-27T23:18:47.008Z,32.71
2023-02-27T23:21:15.568Z,32.98
2023-02-27T23:23:43.094Z,32.72
2023-02-27T23:26:10.832Z,32.67
2023-02-27T23:28:38.245Z,32.79
2023-02-27T23:31:06.422Z,32.79
2023-02-27T23:33:33.520Z,32.87
2023-02-27T23:36:01.416Z,33.13
2023-02-27T23:38:28.689Z,32.79
2023-02-27T23:40:55.348Z,32.75
2023-02-27T23:43:41.188Z,32.73
2023-02-27T23:46:10.048Z,32.79
2023-02-27T23:48:36.823Z,32.80
2023-02-27T23:51:05.281Z,33.17
2023-02-27T23:53:32.573Z,32.73
2023-02-27T23:55:59.901Z,32.73
2023-02-27T23:58:26.618Z,32.73
